sensor_id;sensor_type;location;lat;lon;timestamp;pressure;altitude;pressure_sealevel;temperature;humidity
2397;BME280;1209;48.410;9.054;2022-08-01T00:01:32;96344.06;;;20.05;100.00
2397;BME280;1209;48.410;9.054;2022-08-01T00:03:58;96351.91;;;20.12;100.00
2397;BME280;1209;48.410;9.054;2022-08-01T00:06:23;96352.13;;;20.10;100.00
2397;BME280;1209;48.410;9.054;2022-08-01T00:08:48;96353.97;;;20.22;100.00
2397;BME280;1209;48.410;9.054;2022-08-01T00:11:14;96354.31;;;20.13;100.00
2397;BME280;1209;48.410;9.054;2022-08-01T00:13:39;96355.81;;;20.09;100.00
2397;BME280;1209;48.410;9.054;2022-08-01T00:16:05;96365.03;;;20.19;100.00
2397;BME280;1209;48.410;9.054;2022-08-01T00:18:30;96362.84;;;20.04;100.00
2397;BME280;1209;48.410;9.054;2022-08-01T00:20:55;96356.97;;;20.13;100.00
2397;BME280;1209;48.410;9.054;2022-08-01T00:23:20;96364.25;;;19.95;100.00
2397;BME280;1209;48.410;9.054;2022-08-01T00:25:46;96353.88;;;19.93;100.00
2397;BME280;1209;48.410;9.054;2022-08-01T00:28:11;96356.25;;;19.60;100.00
2397;BME280;1209;48.410;9.054;2022-08-01T00:30:38;96356.88;;;19.97;100.00
2397;BME280;1209;48.410;9.054;2022-08-01T00:33:04;96368.84;;;19.76;100.00
2397;BME280;1209;48.410;9.054;2022-08-01T00:35:29;96366.53;;;19.68;100.00
2397;BME280;1209;48.410;9.054;2022-08-01T00:37:54;96362.03;;;19.80;100.00
2397;BME280;1209;48.410;9.054;2022-08-01T00:40:20;96359.97;;;19.82;100.00
2397;BME280;1209;48.410;9.054;2022-08-01T00:42:46;96359.72;;;19.72;100.00
2397;BME280;1209;48.410;9.054;2022-08-01T00:45:11;96359.50;;;19.73;100.00
2397;BME280;1209;48.410;9.054;2022-08-01T00:47:37;96362.94;;;19.74;100.00
2397;BME280;1209;48.410;9.054;2022-08-01T00:50:06;96355.38;;;19.36;100.00
2397;BME280;1209;48.410;9.054;2022-08-01T00:52:33;96366.47;;;19.44;100.00
2397;BME280;1209;48.410;9.054;2022-08-01T00:54:59;96356.00;;;19.49;100.00
2397;BME280;1209;48.410;9.054;2022-08-01T00:57:25;96359.75;;;19.30;100.00
2397;BME280;1209;48.410;9.054;2022-08-01T00:59:52;96360.88;;;19.53;100.00
2397;BME280;1209;48.410;9.054;2022-08-01T01:02:17;96361.53;;;19.48;100.00
2397;BME280;1209;48.410;9.054;2022-08-01T01:04:43;96362.78;;;19.45;100.00
2397;BME280;1209;48.410;9.054;2022-08-01T01:13:23;96365.84;;;19.31;100.00
2397;BME280;1209;48.410;9.054;2022-08-01T01:16:02;96368.25;;;19.32;100.00
2397;BME280;1209;48.410;9.054;2022-08-01T01:24:03;96374.06;;;19.41;100.00
2397;BME280;1209;48.410;9.054;2022-08-01T01:26:58;96375.69;;;19.12;100.00
2397;BME280;1209;48.410;9.054;2022-08-01T01:32:04;96380.31;;;19.16;100.00
2397;BME280;1209;48.410;9.054;2022-08-01T01:34:34;96382.88;;;19.23;100.00
2397;BME280;1209;48.410;9.054;2022-08-01T01:37:02;96381.84;;;19.24;100.00
2397;BME280;1209;48.410;9.054;2022-08-01T01:39:30;96383.53;;;19.18;100.00
2397;BME280;1209;48.410;9.054;2022-08-01T01:41:57;96381.13;;;19.17;100.00
2397;BME280;1209;48.410;9.054;2022-08-01T01:44:25;96384.22;;;19.14;100.00
2397;BME280;1209;48.410;9.054;2022-08-01T01:46:52;96381.91;;;19.06;100.00
2397;BME280;1209;48.410;9.054;2022-08-01T01:49:23;96378.66;;;19.04;100.00
2397;BME280;1209;48.410;9.054;2022-08-01T01:51:50;96387.53;;;18.79;100.00
2397;BME280;1209;48.410;9.054;2022-08-01T01:54:17;96384.06;;;18.97;100.00
2397;BME280;1209;48.410;9.054;2022-08-01T01:56:43;96380.44;;;18.92;100.00
2397;BME280;1209;48.410;9.054;2022-08-01T01:59:18;96381.91;;;19.06;100.00
2397;BME280;1209;48.410;9.054;2022-08-01T02:01:49;96380.97;;;19.00;100.00
2397;BME280;1209;48.410;9.054;2022-08-01T02:04:16;96376.16;;;19.09;100.00
2397;BME280;1209;48.410;9.054;2022-08-01T02:06:45;96375.47;;;18.83;100.00
2397;BME280;1209;48.410;9.054;2022-08-01T02:09:14;96375.31;;;18.97;100.00
2397;BME280;1209;48.410;9.054;2022-08-01T02:11:41;96370.31;;;18.88;100.00
2397;BME280;1209;48.410;9.054;2022-08-01T02:14:08;96369.94;;;18.85;100.00
2397;BME280;1209;48.410;9.054;2022-08-01T02:16:36;96372.38;;;18.86;100.00
2397;BME280;1209;48.410;9.054;2022-08-01T02:19:02;96371.28;;;18.76;100.00
2397;BME280;1209;48.410;9.054;2022-08-01T02:21:32;96369.97;;;18.67;100.00
2397;BME280;1209;48.410;9.054;2022-08-01T02:24:03;96379.75;;;18.66;100.00
2397;BME280;1209;48.410;9.054;2022-08-01T02:26:33;96379.38;;;18.63;100.00
2397;BME280;1209;48.410;9.054;2022-08-01T02:29:05;96372.97;;;18.70;100.00
2397;BME280;1209;48.410;9.054;2022-08-01T02:31:35;96376.34;;;18.59;100.00
2397;BME280;1209;48.410;9.054;2022-08-01T02:34:05;96381.38;;;18.49;100.00
2397;BME280;1209;48.410;9.054;2022-08-01T02:36:34;96379.22;;;18.58;100.00
2397;BME280;1209;48.410;9.054;2022-08-01T02:39:08;96384.06;;;18.24;100.00
2397;BME280;1209;48.410;9.054;2022-08-01T02:41:38;96382.88;;;18.38;100.00
2397;BME280;1209;48.410;9.054;2022-08-01T02:44:05;96378.91;;;18.29;100.00
2397;BME280;1209;48.410;9.054;2022-08-01T02:46:40;96375.09;;;18.25;100.00
2397;BME280;1209;48.410;9.054;2022-08-01T02:49:10;96386.66;;;18.49;100.00
2397;BME280;1209;48.410;9.054;2022-08-01T02:51:37;96390.25;;;18.54;100.00
2397;BME280;1209;48.410;9.054;2022-08-01T02:54:07;96392.88;;;18.36;100.00
2397;BME280;1209;48.410;9.054;2022-08-01T02:56:34;96383.03;;;18.43;100.00
2397;BME280;1209;48.410;9.054;2022-08-01T02:59:07;96389.56;;;18.41;100.00
2397;BME280;1209;48.410;9.054;2022-08-01T03:01:35;96383.25;;;18.42;100.00
2397;BME280;1209;48.410;9.054;2022-08-01T03:04:03;96372.53;;;18.37;100.00
2397;BME280;1209;48.410;9.054;2022-08-01T03:06:31;96376.34;;;18.41;100.00
2397;BME280;1209;48.410;9.054;2022-08-01T03:08:58;96368.78;;;18.26;100.00
2397;BME280;1209;48.410;9.054;2022-08-01T03:11:25;96368.56;;;18.28;100.00
2397;BME280;1209;48.410;9.054;2022-08-01T03:13:53;96373.69;;;18.22;100.00
2397;BME280;1209;48.410;9.054;2022-08-01T03:16:21;96372.59;;;18.12;100.00
2397;BME280;1209;48.410;9.054;2022-08-01T03:18:51;96375.16;;;18.18;100.00
2397;BME280;1209;48.410;9.054;2022-08-01T03:21:25;96378.63;;;18.01;100.00
2397;BME280;1209;48.410;9.054;2022-08-01T03:23:53;96373.19;;;18.14;100.00
2397;BME280;1209;48.410;9.054;2022-08-01T03:26:26;96376.84;;;18.13;100.00
2397;BME280;1209;48.410;9.054;2022-08-01T03:28:55;96377.38;;;18.21;100.00
2397;BME280;1209;48.410;9.054;2022-08-01T03:31:22;96377.22;;;18.16;100.00
2397;BME280;1209;48.410;9.054;2022-08-01T03:33:48;96377.25;;;17.91;100.00
2397;BME280;1209;48.410;9.054;2022-08-01T03:36:14;96374.56;;;17.98;100.00
2397;BME280;1209;48.410;9.054;2022-08-01T03:38:41;96376.13;;;18.06;100.00
2397;BME280;1209;48.410;9.054;2022-08-01T03:41:13;96382.28;;;18.00;100.00
2397;BME280;1209;48.410;9.054;2022-08-01T03:43:45;96376.41;;;17.98;100.00
2397;BME280;1209;48.410;9.054;2022-08-01T03:46:17;96373.53;;;17.99;100.00
2397;BME280;1209;48.410;9.054;2022-08-01T03:48:48;96371.88;;;17.80;100.00
2397;BME280;1209;48.410;9.054;2022-08-01T03:51:14;96376.00;;;17.94;100.00
2397;BME280;1209;48.410;9.054;2022-08-01T03:53:41;96376.72;;;17.83;100.00
2397;BME280;1209;48.410;9.054;2022-08-01T03:56:07;96376.34;;;17.54;100.00
2397;BME280;1209;48.410;9.054;2022-08-01T03:58:35;96375.97;;;17.76;100.00
2397;BME280;1209;48.410;9.054;2022-08-01T04:01:01;96380.66;;;17.74;100.00
2397;BME280;1209;48.410;9.054;2022-08-01T04:03:27;96378.97;;;17.54;100.00
2397;BME280;1209;48.410;9.054;2022-08-01T04:05:53;96376.44;;;17.66;100.00
2397;BME280;1209;48.410;9.054;2022-08-01T04:08:18;96379.88;;;17.73;100.00
2397;BME280;1209;48.410;9.054;2022-08-01T04:10:43;96375.81;;;17.71;100.00
2397;BME280;1209;48.410;9.054;2022-08-01T04:13:09;96378.84;;;17.43;100.00
2397;BME280;1209;48.410;9.054;2022-08-01T04:15:34;96382.94;;;17.70;100.00
2397;BME280;1209;48.410;9.054;2022-08-01T04:18:00;96385.75;;;17.75;100.00
2397;BME280;1209;48.410;9.054;2022-08-01T04:20:25;96387.78;;;17.73;100.00
2397;BME280;1209;48.410;9.054;2022-08-01T04:22:50;96396.72;;;17.72;100.00
2397;BME280;1209;48.410;9.054;2022-08-01T04:25:25;96394.41;;;17.82;100.00
2397;BME280;1209;48.410;9.054;2022-08-01T04:27:52;96401.09;;;17.85;100.00
2397;BME280;1209;48.410;9.054;2022-08-01T04:30:25;96400.34;;;17.78;100.00
2397;BME280;1209;48.410;9.054;2022-08-01T04:32:52;96397.56;;;17.66;100.00
2397;BME280;1209;48.410;9.054;2022-08-01T04:35:20;96405.13;;;17.62;100.00
2397;BME280;1209;48.410;9.054;2022-08-01T04:37:47;96400.28;;;17.84;100.00
2397;BME280;1209;48.410;9.054;2022-08-01T04:40:14;96409.47;;;17.82;100.00
2397;BME280;1209;48.410;9.054;2022-08-01T04:42:41;96405.72;;;17.89;100.00
2397;BME280;1209;48.410;9.054;2022-08-01T04:45:07;96404.31;;;17.87;100.00
2397;BME280;1209;48.410;9.054;2022-08-01T04:47:34;96412.03;;;17.88;100.00
2397;BME280;1209;48.410;9.054;2022-08-01T04:50:00;96403.94;;;17.83;100.00
2397;BME280;1209;48.410;9.054;2022-08-01T04:52:35;96404.09;;;17.88;100.00
2397;BME280;1209;48.410;9.054;2022-08-01T04:55:01;96407.53;;;17.71;100.00
2397;BME280;1209;48.410;9.054;2022-08-01T04:57:27;96404.69;;;17.66;100.00
2397;BME280;1209;48.410;9.054;2022-08-01T04:59:52;96408.88;;;17.80;100.00
2397;BME280;1209;48.410;9.054;2022-08-01T05:02:22;96402.66;;;17.92;100.00
2397;BME280;1209;48.410;9.054;2022-08-01T05:04:48;96412.41;;;17.92;100.00
2397;BME280;1209;48.410;9.054;2022-08-01T05:07:14;96412.69;;;18.09;100.00
2397;BME280;1209;48.410;9.054;2022-08-01T05:09:41;96412.91;;;18.07;100.00
2397;BME280;1209;48.410;9.054;2022-08-01T05:12:08;96407.34;;;18.15;100.00
2397;BME280;1209;48.410;9.054;2022-08-01T05:14:34;96412.13;;;18.25;100.00
2397;BME280;1209;48.410;9.054;2022-08-01T05:17:01;96414.91;;;18.30;100.00
2397;BME280;1209;48.410;9.054;2022-08-01T05:19:35;96405.88;;;18.38;100.00
2397;BME280;1209;48.410;9.054;2022-08-01T05:22:01;96406.47;;;18.40;100.00
2397;BME280;1209;48.410;9.054;2022-08-01T05:24:30;96407.63;;;18.44;100.00
2397;BME280;1209;48.410;9.054;2022-08-01T05:26:56;96408.03;;;18.47;100.00
2397;BME280;1209;48.410;9.054;2022-08-01T05:29:23;96411.72;;;18.46;100.00
2397;BME280;1209;48.410;9.054;2022-08-01T05:31:48;96415.16;;;18.47;100.00
2397;BME280;1209;48.410;9.054;2022-08-01T05:34:14;96406.63;;;18.45;100.00
2397;BME280;1209;48.410;9.054;2022-08-01T05:36:39;96405.22;;;18.42;100.00
2397;BME280;1209;48.410;9.054;2022-08-01T05:39:05;96410.13;;;18.39;100.00
2397;BME280;1209;48.410;9.054;2022-08-01T05:41:30;96409.09;;;18.40;100.00
2397;BME280;1209;48.410;9.054;2022-08-01T05:43:56;96408.28;;;18.39;100.00
2397;BME280;1209;48.410;9.054;2022-08-01T05:46:21;96411.53;;;18.41;100.00
2397;BME280;1209;48.410;9.054;2022-08-01T05:48:47;96404.63;;;18.40;100.00
2397;BME280;1209;48.410;9.054;2022-08-01T05:51:12;96402.16;;;18.45;100.00
2397;BME280;1209;48.410;9.054;2022-08-01T05:53:37;96406.34;;;18.53;100.00
2397;BME280;1209;48.410;9.054;2022-08-01T05:56:03;96405.91;;;18.56;100.00
2397;BME280;1209;48.410;9.054;2022-08-01T05:58:29;96402.41;;;18.62;100.00
2397;BME280;1209;48.410;9.054;2022-08-01T06:00:54;96404.81;;;18.64;100.00
2397;BME280;1209;48.410;9.054;2022-08-01T06:03:19;96403.03;;;18.76;100.00
2397;BME280;1209;48.410;9.054;2022-08-01T06:05:45;96406.09;;;18.91;100.00
2397;BME280;1209;48.410;9.054;2022-08-01T06:08:10;96407.47;;;19.12;100.00
2397;BME280;1209;48.410;9.054;2022-08-01T06:10:36;96406.97;;;19.33;100.00
2397;BME280;1209;48.410;9.054;2022-08-01T06:13:01;96413.00;;;19.52;100.00
2397;BME280;1209;48.410;9.054;2022-08-01T06:15:31;96412.84;;;19.77;100.00
2397;BME280;1209;48.410;9.054;2022-08-01T06:17:57;96414.97;;;19.98;100.00
2397;BME280;1209;48.410;9.054;2022-08-01T06:20:22;96416.34;;;20.12;100.00
2397;BME280;1209;48.410;9.054;2022-08-01T06:22:48;96416.69;;;20.28;100.00
2397;BME280;1209;48.410;9.054;2022-08-01T06:25:13;96411.84;;;20.36;100.00
2397;BME280;1209;48.410;9.054;2022-08-01T06:27:38;96410.22;;;20.59;100.00
2397;BME280;1209;48.410;9.054;2022-08-01T06:30:05;96411.56;;;20.85;100.00
2397;BME280;1209;48.410;9.054;2022-08-01T06:32:32;96411.16;;;21.04;100.00
2397;BME280;1209;48.410;9.054;2022-08-01T06:34:58;96407.03;;;21.25;100.00
2397;BME280;1209;48.410;9.054;2022-08-01T06:37:24;96412.72;;;21.46;100.00
2397;BME280;1209;48.410;9.054;2022-08-01T06:39:53;96409.59;;;21.65;100.00
2397;BME280;1209;48.410;9.054;2022-08-01T06:42:18;96404.06;;;21.84;100.00
2397;BME280;1209;48.410;9.054;2022-08-01T06:44:44;96407.88;;;22.05;100.00
2397;BME280;1209;48.410;9.054;2022-08-01T06:47:09;96406.34;;;22.25;100.00
2397;BME280;1209;48.410;9.054;2022-08-01T06:49:35;96401.94;;;22.36;100.00
2397;BME280;1209;48.410;9.054;2022-08-01T06:52:00;96403.06;;;22.40;100.00
2397;BME280;1209;48.410;9.054;2022-08-01T06:54:25;96401.03;;;22.69;100.00
2397;BME280;1209;48.410;9.054;2022-08-01T06:56:51;96400.31;;;22.74;100.00
2397;BME280;1209;48.410;9.054;2022-08-01T06:59:16;96402.63;;;22.87;100.00
2397;BME280;1209;48.410;9.054;2022-08-01T07:01:41;96402.25;;;23.00;100.00
2397;BME280;1209;48.410;9.054;2022-08-01T07:04:07;96402.66;;;23.14;100.00
2397;BME280;1209;48.410;9.054;2022-08-01T07:06:32;96394.09;;;23.34;100.00
2397;BME280;1209;48.410;9.054;2022-08-01T07:08:57;96391.97;;;23.36;100.00
2397;BME280;1209;48.410;9.054;2022-08-01T07:11:23;96394.78;;;23.51;100.00
2397;BME280;1209;48.410;9.054;2022-08-01T07:13:49;96390.09;;;23.63;100.00
2397;BME280;1209;48.410;9.054;2022-08-01T07:16:15;96400.88;;;23.73;100.00
2397;BME280;1209;48.410;9.054;2022-08-01T07:18:41;96403.75;;;23.67;100.00
2397;BME280;1209;48.410;9.054;2022-08-01T07:21:07;96399.50;;;23.66;100.00
2397;BME280;1209;48.410;9.054;2022-08-01T07:23:32;96400.34;;;23.71;100.00
2397;BME280;1209;48.410;9.054;2022-08-01T07:25:58;96398.47;;;23.72;100.00
2397;BME280;1209;48.410;9.054;2022-08-01T07:28:24;96395.06;;;23.81;100.00
2397;BME280;1209;48.410;9.054;2022-08-01T07:30:49;96390.22;;;23.73;100.00
2397;BME280;1209;48.410;9.054;2022-08-01T07:33:15;96397.22;;;23.84;100.00
2397;BME280;1209;48.410;9.054;2022-08-01T07:35:40;96397.38;;;24.05;100.00
2397;BME280;1209;48.410;9.054;2022-08-01T07:38:06;96395.16;;;24.29;100.00
2397;BME280;1209;48.410;9.054;2022-08-01T07:40:32;96395.47;;;24.37;99.45
2397;BME280;1209;48.410;9.054;2022-08-01T07:42:57;96391.78;;;24.43;99.59
2397;BME280;1209;48.410;9.054;2022-08-01T07:45:23;96391.50;;;24.45;100.00
2397;BME280;1209;48.410;9.054;2022-08-01T07:47:48;96389.25;;;24.69;98.43
2397;BME280;1209;48.410;9.054;2022-08-01T07:50:15;96392.78;;;24.85;100.00
2397;BME280;1209;48.410;9.054;2022-08-01T07:52:41;96395.78;;;24.98;95.41
2397;BME280;1209;48.410;9.054;2022-08-01T07:55:07;96391.03;;;25.16;92.79
2397;BME280;1209;48.410;9.054;2022-08-01T07:57:33;96383.03;;;25.21;90.20
2397;BME280;1209;48.410;9.054;2022-08-01T07:59:58;96383.84;;;25.41;90.78
2397;BME280;1209;48.410;9.054;2022-08-01T08:02:24;96386.53;;;25.36;90.26
2397;BME280;1209;48.410;9.054;2022-08-01T08:04:49;96383.38;;;25.60;88.42
2397;BME280;1209;48.410;9.054;2022-08-01T08:07:14;96383.13;;;25.87;88.71
2397;BME280;1209;48.410;9.054;2022-08-01T08:09:39;96378.81;;;26.01;85.91
2397;BME280;1209;48.410;9.054;2022-08-01T08:12:05;96381.50;;;26.01;86.71
2397;BME280;1209;48.410;9.054;2022-08-01T08:14:31;96380.63;;;26.46;85.40
2397;BME280;1209;48.410;9.054;2022-08-01T08:16:56;96377.69;;;26.53;84.94
2397;BME280;1209;48.410;9.054;2022-08-01T08:19:22;96381.69;;;26.60;84.05
2397;BME280;1209;48.410;9.054;2022-08-01T08:21:47;96382.53;;;26.51;83.39
2397;BME280;1209;48.410;9.054;2022-08-01T08:24:12;96379.84;;;26.46;84.72
2397;BME280;1209;48.410;9.054;2022-08-01T08:26:54;96378.88;;;26.86;82.96
2397;BME280;1209;48.410;9.054;2022-08-01T08:29:20;96373.31;;;26.77;81.98
2397;BME280;1209;48.410;9.054;2022-08-01T08:31:46;96388.97;;;26.50;84.16
2397;BME280;1209;48.410;9.054;2022-08-01T08:34:12;96379.59;;;26.37;84.79
2397;BME280;1209;48.410;9.054;2022-08-01T08:36:37;96378.69;;;26.72;84.35
2397;BME280;1209;48.410;9.054;2022-08-01T08:39:03;96381.28;;;26.92;81.01
2397;BME280;1209;48.410;9.054;2022-08-01T08:41:33;96376.47;;;27.00;80.99
2397;BME280;1209;48.410;9.054;2022-08-01T08:44:03;96381.88;;;26.79;81.90
2397;BME280;1209;48.410;9.054;2022-08-01T08:46:29;96384.09;;;26.62;82.32
2397;BME280;1209;48.410;9.054;2022-08-01T08:48:58;96380.59;;;26.66;80.82
2397;BME280;1209;48.410;9.054;2022-08-01T08:51:26;96381.28;;;27.03;80.09
2397;BME280;1209;48.410;9.054;2022-08-01T08:53:55;96379.19;;;27.34;79.47
2397;BME280;1209;48.410;9.054;2022-08-01T08:56:21;96380.13;;;27.63;78.22
2397;BME280;1209;48.410;9.054;2022-08-01T08:58:50;96377.22;;;27.88;76.71
2397;BME280;1209;48.410;9.054;2022-08-01T09:01:16;96382.56;;;27.94;77.09
2397;BME280;1209;48.410;9.054;2022-08-01T09:03:43;96386.63;;;27.86;74.68
2397;BME280;1209;48.410;9.054;2022-08-01T09:06:09;96387.00;;;28.08;73.46
2397;BME280;1209;48.410;9.054;2022-08-01T09:08:35;96386.19;;;28.08;71.96
2397;BME280;1209;48.410;9.054;2022-08-01T09:11:00;96376.53;;;28.36;71.96
2397;BME280;1209;48.410;9.054;2022-08-01T09:13:26;96379.50;;;28.82;69.86
2397;BME280;1209;48.410;9.054;2022-08-01T09:15:53;96379.59;;;29.20;72.49
2397;BME280;1209;48.410;9.054;2022-08-01T09:18:25;96384.06;;;29.48;68.95
2397;BME280;1209;48.410;9.054;2022-08-01T09:23:36;96376.34;;;29.41;69.74
2397;BME280;1209;48.410;9.054;2022-08-01T09:26:05;96382.88;;;29.35;66.86
2397;BME280;1209;48.410;9.054;2022-08-01T09:28:31;96378.66;;;29.67;64.64
2397;BME280;1209;48.410;9.054;2022-08-01T09:30:57;96381.50;;;29.38;66.31
2397;BME280;1209;48.410;9.054;2022-08-01T09:33:22;96384.75;;;28.97;67.39
2397;BME280;1209;48.410;9.054;2022-08-01T09:35:57;96378.28;;;28.98;70.94
2397;BME280;1209;48.410;9.054;2022-08-01T09:38:24;96380.63;;;28.57;69.98
2397;BME280;1209;48.410;9.054;2022-08-01T09:40:56;96378.28;;;28.50;69.81
2397;BME280;1209;48.410;9.054;2022-08-01T09:43:24;96380.34;;;28.01;71.38
2397;BME280;1209;48.410;9.054;2022-08-01T09:45:50;96380.06;;;28.02;72.24
2397;BME280;1209;48.410;9.054;2022-08-01T09:48:15;96376.59;;;28.55;72.47
2397;BME280;1209;48.410;9.054;2022-08-01T09:50:48;96373.03;;;28.35;73.25
2397;BME280;1209;48.410;9.054;2022-08-01T09:53:15;96370.75;;;27.89;76.13
2397;BME280;1209;48.410;9.054;2022-08-01T09:55:41;96361.94;;;27.50;76.75
2397;BME280;1209;48.410;9.054;2022-08-01T09:58:07;96374.25;;;27.56;76.54
2397;BME280;1209;48.410;9.054;2022-08-01T10:00:34;96368.38;;;27.49;76.97
2397;BME280;1209;48.410;9.054;2022-08-01T10:03:17;96371.41;;;27.37;76.50
2397;BME280;1209;48.410;9.054;2022-08-01T10:05:43;96361.13;;;27.49;75.79
2397;BME280;1209;48.410;9.054;2022-08-01T10:08:09;96356.59;;;28.13;78.05
2397;BME280;1209;48.410;9.054;2022-08-01T10:10:35;96366.19;;;28.96;70.09
2397;BME280;1209;48.410;9.054;2022-08-01T10:13:01;96358.81;;;29.44;66.27
2397;BME280;1209;48.410;9.054;2022-08-01T10:15:27;96353.38;;;29.82;65.45
2397;BME280;1209;48.410;9.054;2022-08-01T10:17:55;96346.69;;;30.12;65.56
2397;BME280;1209;48.410;9.054;2022-08-01T10:20:27;96349.53;;;30.61;63.57
2397;BME280;1209;48.410;9.054;2022-08-01T10:22:54;96343.53;;;30.92;58.95
2397;BME280;1209;48.410;9.054;2022-08-01T10:25:20;96343.63;;;30.87;58.92
2397;BME280;1209;48.410;9.054;2022-08-01T10:27:48;96342.13;;;30.94;58.06
2397;BME280;1209;48.410;9.054;2022-08-01T10:30:14;96331.56;;;30.84;59.85
2397;BME280;1209;48.410;9.054;2022-08-01T10:32:41;96338.09;;;31.06;58.71
2397;BME280;1209;48.410;9.054;2022-08-01T10:35:08;96332.81;;;31.00;59.63
2397;BME280;1209;48.410;9.054;2022-08-01T10:37:40;96325.84;;;31.58;59.55
2397;BME280;1209;48.410;9.054;2022-08-01T10:40:06;96330.56;;;31.30;56.88
2397;BME280;1209;48.410;9.054;2022-08-01T10:42:33;96328.06;;;30.29;61.21
2397;BME280;1209;48.410;9.054;2022-08-01T10:44:59;96333.66;;;30.74;63.90
2397;BME280;1209;48.410;9.054;2022-08-01T10:47:28;96331.22;;;30.99;60.16
2397;BME280;1209;48.410;9.054;2022-08-01T10:50:07;96338.91;;;31.06;58.81
2397;BME280;1209;48.410;9.054;2022-08-01T10:52:36;96329.06;;;30.33;59.69
2397;BME280;1209;48.410;9.054;2022-08-01T10:55:07;96331.97;;;29.90;62.36
2397;BME280;1209;48.410;9.054;2022-08-01T10:57:46;96328.31;;;28.92;66.89
2397;BME280;1209;48.410;9.054;2022-08-01T11:00:21;96326.28;;;29.03;66.15
2397;BME280;1209;48.410;9.054;2022-08-01T11:03:02;96335.22;;;28.98;66.75
2397;BME280;1209;48.410;9.054;2022-08-01T11:05:33;96321.97;;;28.35;68.29
2397;BME280;1209;48.410;9.054;2022-08-01T11:08:03;96336.50;;;28.34;67.85
2397;BME280;1209;48.410;9.054;2022-08-01T11:10:39;96329.09;;;28.21;69.00
2397;BME280;1209;48.410;9.054;2022-08-01T11:13:05;96326.88;;;27.75;72.19
2397;BME280;1209;48.410;9.054;2022-08-01T11:15:34;96325.09;;;27.60;71.00
2397;BME280;1209;48.410;9.054;2022-08-01T11:20:56;96332.09;;;27.62;74.40
2397;BME280;1209;48.410;9.054;2022-08-01T11:23:23;96330.78;;;27.54;76.73
2397;BME280;1209;48.410;9.054;2022-08-01T11:30:50;96322.91;;;27.28;78.56
2397;BME280;1209;48.410;9.054;2022-08-01T11:33:18;96315.19;;;27.22;77.65
2397;BME280;1209;48.410;9.054;2022-08-01T11:36:17;96312.66;;;26.91;79.11
2397;BME280;1209;48.410;9.054;2022-08-01T11:41:33;96305.41;;;26.92;79.41
2397;BME280;1209;48.410;9.054;2022-08-01T11:44:07;96317.34;;;27.20;78.93
2397;BME280;1209;48.410;9.054;2022-08-01T11:46:58;96318.31;;;27.34;76.46
2397;BME280;1209;48.410;9.054;2022-08-01T11:54:53;96303.16;;;28.59;69.54
2397;BME280;1209;48.410;9.054;2022-08-01T11:59:53;96305.63;;;28.32;72.14
2397;BME280;1209;48.410;9.054;2022-08-01T12:02:24;96300.13;;;27.94;72.42
2397;BME280;1209;48.410;9.054;2022-08-01T12:04:51;96290.03;;;27.81;73.46
2397;BME280;1209;48.410;9.054;2022-08-01T12:07:17;96288.88;;;27.63;73.08
2397;BME280;1209;48.410;9.054;2022-08-01T12:09:43;96281.81;;;28.92;69.61
2397;BME280;1209;48.410;9.054;2022-08-01T12:12:09;96287.50;;;29.60;65.57
2397;BME280;1209;48.410;9.054;2022-08-01T12:14:35;96278.53;;;30.11;63.58
2397;BME280;1209;48.410;9.054;2022-08-01T12:17:00;96278.72;;;31.06;63.11
2397;BME280;1209;48.410;9.054;2022-08-01T12:19:26;96279.41;;;31.25;59.77
2397;BME280;1209;48.410;9.054;2022-08-01T12:24:33;96275.59;;;30.90;63.49
2397;BME280;1209;48.410;9.054;2022-08-01T12:26:59;96277.22;;;30.50;62.30
2397;BME280;1209;48.410;9.054;2022-08-01T12:29:35;96272.59;;;31.27;61.07
2397;BME280;1209;48.410;9.054;2022-08-01T12:32:02;96264.50;;;31.27;60.72
2397;BME280;1209;48.410;9.054;2022-08-01T12:34:28;96278.00;;;31.72;59.99
2397;BME280;1209;48.410;9.054;2022-08-01T12:36:56;96278.75;;;31.95;59.54
2397;BME280;1209;48.410;9.054;2022-08-01T12:39:30;96274.63;;;30.03;61.98
2397;BME280;1209;48.410;9.054;2022-08-01T12:41:56;96273.84;;;30.17;61.56
2397;BME280;1209;48.410;9.054;2022-08-01T12:44:22;96277.63;;;30.16;62.23
2397;BME280;1209;48.410;9.054;2022-08-01T12:46:47;96268.31;;;29.29;65.13
2397;BME280;1209;48.410;9.054;2022-08-01T12:49:13;96282.47;;;29.86;66.48
2397;BME280;1209;48.410;9.054;2022-08-01T12:51:38;96281.63;;;30.04;66.44
2397;BME280;1209;48.410;9.054;2022-08-01T12:54:04;96265.00;;;29.00;64.72
2397;BME280;1209;48.410;9.054;2022-08-01T12:56:33;96272.78;;;28.40;67.25
2397;BME280;1209;48.410;9.054;2022-08-01T12:58:58;96280.63;;;28.98;65.24
2397;BME280;1209;48.410;9.054;2022-08-01T13:01:27;96277.19;;;29.30;62.80
2397;BME280;1209;48.410;9.054;2022-08-01T13:04:03;96269.25;;;30.03;61.59
2397;BME280;1209;48.410;9.054;2022-08-01T13:06:31;96275.50;;;31.17;58.96
2397;BME280;1209;48.410;9.054;2022-08-01T13:09:08;96272.34;;;30.65;58.09
2397;BME280;1209;48.410;9.054;2022-08-01T13:11:35;96268.78;;;31.28;59.10
2397;BME280;1209;48.410;9.054;2022-08-01T13:14:01;96265.97;;;31.34;55.71
2397;BME280;1209;48.410;9.054;2022-08-01T13:16:27;96263.13;;;30.53;58.70
2397;BME280;1209;48.410;9.054;2022-08-01T13:18:56;96267.25;;;30.23;59.49
2397;BME280;1209;48.410;9.054;2022-08-01T13:21:23;96260.38;;;30.94;60.79
2397;BME280;1209;48.410;9.054;2022-08-01T13:24:10;96263.75;;;32.20;55.37
2397;BME280;1209;48.410;9.054;2022-08-01T13:26:53;96257.19;;;32.61;54.61
2397;BME280;1209;48.410;9.054;2022-08-01T13:29:28;96249.44;;;32.19;55.50
2397;BME280;1209;48.410;9.054;2022-08-01T13:31:54;96252.31;;;31.61;55.55
2397;BME280;1209;48.410;9.054;2022-08-01T13:34:32;96250.19;;;32.51;56.50
2397;BME280;1209;48.410;9.054;2022-08-01T13:36:59;96248.78;;;31.52;54.36
2397;BME280;1209;48.410;9.054;2022-08-01T13:39:28;96244.69;;;30.96;58.38
2397;BME280;1209;48.410;9.054;2022-08-01T13:42:05;96249.00;;;31.64;58.00
2397;BME280;1209;48.410;9.054;2022-08-01T13:44:31;96251.91;;;31.99;54.47
2397;BME280;1209;48.410;9.054;2022-08-01T13:46:56;96245.31;;;31.82;55.76
2397;BME280;1209;48.410;9.054;2022-08-01T13:49:21;96241.03;;;32.21;52.71
2397;BME280;1209;48.410;9.054;2022-08-01T13:51:47;96234.09;;;32.46;53.60
2397;BME280;1209;48.410;9.054;2022-08-01T13:54:15;96245.09;;;32.10;54.69
2397;BME280;1209;48.410;9.054;2022-08-01T13:56:40;96232.88;;;30.69;57.57